sensor_id;sensor_type;location;lat;lon;timestamp;temperature;humidity
35445;DHT22;21562;49.476;6.086;2024-03-23T00:53:37;11.50;99.90
35445;DHT22;21562;49.476;6.086;2024-03-23T00:56:03;11.60;99.90
35445;DHT22;21562;49.476;6.086;2024-03-23T00:58:29;11.50;99.90
35445;DHT22;21562;49.476;6.086;2024-03-23T01:00:55;11.70;99.90
35445;DHT22;21562;49.476;6.086;2024-03-23T01:03:20;11.60;99.90
35445;DHT22;21562;49.476;6.086;2024-03-23T01:05:46;11.50;99.90
35445;DHT22;21562;49.476;6.086;2024-03-23T01:08:12;11.60;99.90
35445;DHT22;21562;49.476;6.086;2024-03-23T01:10:37;11.60;99.90
35445;DHT22;21562;49.476;6.086;2024-03-23T01:13:03;11.20;99.90
35445;DHT22;21562;49.476;6.086;2024-03-23T01:15:29;11.10;99.90
35445;DHT22;21562;49.476;6.086;2024-03-23T01:17:54;10.90;99.90
35445;DHT22;21562;49.476;6.086;2024-03-23T01:20:20;10.90;99.90
35445;DHT22;21562;49.476;6.086;2024-03-23T01:22:46;11.00;99.90
35445;DHT22;21562;49.476;6.086;2024-03-23T01:25:11;11.10;99.90
35445;DHT22;21562;49.476;6.086;2024-03-23T01:27:37;10.90;99.90
35445;DHT22;21562;49.476;6.086;2024-03-23T01:30:03;10.80;99.90
35445;DHT22;21562;49.476;6.086;2024-03-23T01:32:29;10.70;99.90
35445;DHT22;21562;49.476;6.086;2024-03-23T01:34:54;10.50;99.90
35445;DHT22;21562;49.476;6.086;2024-03-23T01:37:20;10.40;99.90
35445;DHT22;21562;49.476;6.086;2024-03-23T01:39:46;10.10;99.90
35445;DHT22;21562;49.476;6.086;2024-03-23T01:42:12;9.80;99.90
35445;DHT22;21562;49.476;6.086;2024-03-23T01:44:38;9.70;99.90
35445;DHT22;21562;49.476;6.086;2024-03-23T01:47:04;9.50;99.90
35445;DHT22;21562;49.476;6.086;2024-03-23T01:49:29;9.50;99.90
35445;DHT22;21562;49.476;6.086;2024-03-23T01:51:56;9.50;99.90
35445;DHT22;21562;49.476;6.086;2024-03-23T01:54:22;9.40;99.90
35445;DHT22;21562;49.476;6.086;2024-03-23T01:56:48;9.30;99.90
35445;DHT22;21562;49.476;6.086;2024-03-23T01:59:14;9.20;99.90
35445;DHT22;21562;49.476;6.086;2024-03-23T02:01:40;9.20;99.90
35445;DHT22;21562;49.476;6.086;2024-03-23T02:04:06;9.20;99.90
35445;DHT22;21562;49.476;6.086;2024-03-23T02:06:33;9.10;99.90
35445;DHT22;21562;49.476;6.086;2024-03-23T02:08:59;9.00;99.90
35445;DHT22;21562;49.476;6.086;2024-03-23T02:11:25;9.00;99.90
35445;DHT22;21562;49.476;6.086;2024-03-23T02:13:51;8.80;99.90
35445;DHT22;21562;49.476;6.086;2024-03-23T02:16:17;8.80;99.90
35445;DHT22;21562;49.476;6.086;2024-03-23T02:18:42;8.90;99.90
35445;DHT22;21562;49.476;6.086;2024-03-23T02:21:08;8.80;99.90
35445;DHT22;21562;49.476;6.086;2024-03-23T02:23:34;9.00;99.90
35445;DHT22;21562;49.476;6.086;2024-03-23T02:25:59;9.30;99.90
35445;DHT22;21562;49.476;6.086;2024-03-23T02:28:25;9.00;99.90
35445;DHT22;21562;49.476;6.086;2024-03-23T02:30:51;8.90;99.90
35445;DHT22;21562;49.476;6.086;2024-03-23T02:33:17;8.90;99.90
35445;DHT22;21562;49.476;6.086;2024-03-23T02:35:46;8.80;99.90
35445;DHT22;21562;49.476;6.086;2024-03-23T02:38:12;8.90;99.90
35445;DHT22;21562;49.476;6.086;2024-03-23T02:40:38;8.70;99.90
35445;DHT22;21562;49.476;6.086;2024-03-23T02:43:04;8.70;99.90
35445;DHT22;21562;49.476;6.086;2024-03-23T02:45:30;8.80;99.90
35445;DHT22;21562;49.476;6.086;2024-03-23T02:47:56;8.90;99.90
35445;DHT22;21562;49.476;6.086;2024-03-23T02:50:22;8.80;99.90
35445;DHT22;21562;49.476;6.086;2024-03-23T02:52:48;8.90;99.90
35445;DHT22;21562;49.476;6.086;2024-03-23T02:55:14;9.00;99.90
35445;DHT22;21562;49.476;6.086;2024-03-23T02:57:40;8.90;99.90
35445;DHT22;21562;49.476;6.086;2024-03-23T03:00:06;9.00;99.90
35445;DHT22;21562;49.476;6.086;2024-03-23T03:02:33;8.70;99.90
35445;DHT22;21562;49.476;6.086;2024-03-23T03:04:59;8.60;99.90
35445;DHT22;21562;49.476;6.086;2024-03-23T03:07:25;8.70;99.90
35445;DHT22;21562;49.476;6.086;2024-03-23T03:09:51;8.70;99.90
35445;DHT22;21562;49.476;6.086;2024-03-23T03:12:16;8.90;99.90
35445;DHT22;21562;49.476;6.086;2024-03-23T03:14:42;8.70;99.90
35445;DHT22;21562;49.476;6.086;2024-03-23T03:17:08;8.70;99.90
35445;DHT22;21562;49.476;6.086;2024-03-23T03:19:34;8.80;99.90
35445;DHT22;21562;49.476;6.086;2024-03-23T03:22:00;8.80;99.90
35445;DHT22;21562;49.476;6.086;2024-03-23T03:24:25;8.90;99.90
35445;DHT22;21562;49.476;6.086;2024-03-23T03:26:51;8.90;99.90
35445;DHT22;21562;49.476;6.086;2024-03-23T03:29:17;8.90;99.90
35445;DHT22;21562;49.476;6.086;2024-03-23T03:31:43;8.70;99.90
35445;DHT22;21562;49.476;6.086;2024-03-23T03:34:09;8.50;99.90
35445;DHT22;21562;49.476;6.086;2024-03-23T03:36:35;8.70;99.90
35445;DHT22;21562;49.476;6.086;2024-03-23T03:39:00;8.60;99.90
35445;DHT22;21562;49.476;6.086;2024-03-23T03:41:28;8.50;99.90
35445;DHT22;21562;49.476;6.086;2024-03-23T03:43:54;8.70;99.90
35445;DHT22;21562;49.476;6.086;2024-03-23T03:46:20;8.70;99.90
35445;DHT22;21562;49.476;6.086;2024-03-23T03:48:46;8.70;99.90
35445;DHT22;21562;49.476;6.086;2024-03-23T03:51:14;8.60;99.90
35445;DHT22;21562;49.476;6.086;2024-03-23T03:53:39;8.80;99.90
35445;DHT22;21562;49.476;6.086;2024-03-23T03:56:05;8.50;99.90
35445;DHT22;21562;49.476;6.086;2024-03-23T03:58:31;8.50;99.90
35445;DHT22;21562;49.476;6.086;2024-03-23T04:00:57;8.10;99.90
35445;DHT22;21562;49.476;6.086;2024-03-23T04:03:22;8.00;99.90
35445;DHT22;21562;49.476;6.086;2024-03-23T04:05:52;8.20;99.90
35445;DHT22;21562;49.476;6.086;2024-03-23T04:08:19;8.40;99.90
35445;DHT22;21562;49.476;6.086;2024-03-23T04:10:45;8.30;99.90
35445;DHT22;21562;49.476;6.086;2024-03-23T04:13:11;8.30;99.90
35445;DHT22;21562;49.476;6.086;2024-03-23T04:15:37;8.30;99.90
35445;DHT22;21562;49.476;6.086;2024-03-23T04:18:03;8.40;99.90
35445;DHT22;21562;49.476;6.086;2024-03-23T04:20:29;8.00;99.90
35445;DHT22;21562;49.476;6.086;2024-03-23T04:22:54;7.90;99.90
35445;DHT22;21562;49.476;6.086;2024-03-23T04:25:20;7.80;99.90
35445;DHT22;21562;49.476;6.086;2024-03-23T04:27:46;7.70;99.90
35445;DHT22;21562;49.476;6.086;2024-03-23T04:30:12;7.90;99.90
35445;DHT22;21562;49.476;6.086;2024-03-23T04:32:38;7.90;99.90
35445;DHT22;21562;49.476;6.086;2024-03-23T04:35:04;7.90;99.90
35445;DHT22;21562;49.476;6.086;2024-03-23T04:37:35;7.60;99.90
35445;DHT22;21562;49.476;6.086;2024-03-23T04:40:02;7.50;99.90
35445;DHT22;21562;49.476;6.086;2024-03-23T04:42:28;7.70;99.90
35445;DHT22;21562;49.476;6.086;2024-03-23T04:44:54;7.50;99.90
35445;DHT22;21562;49.476;6.086;2024-03-23T04:47:20;7.20;99.90
35445;DHT22;21562;49.476;6.086;2024-03-23T04:49:46;7.50;99.90
35445;DHT22;21562;49.476;6.086;2024-03-23T04:52:12;7.70;99.90
35445;DHT22;21562;49.476;6.086;2024-03-23T04:54:37;7.80;99.90
35445;DHT22;21562;49.476;6.086;2024-03-23T04:57:05;7.50;99.90
35445;DHT22;21562;49.476;6.086;2024-03-23T04:59:31;7.50;99.90
35445;DHT22;21562;49.476;6.086;2024-03-23T05:01:57;7.20;99.90
35445;DHT22;21562;49.476;6.086;2024-03-23T05:04:23;7.10;99.90
35445;DHT22;21562;49.476;6.086;2024-03-23T05:06:49;7.00;99.90
35445;DHT22;21562;49.476;6.086;2024-03-23T05:09:14;7.20;99.90
35445;DHT22;21562;49.476;6.086;2024-03-23T05:11:40;7.20;99.90
35445;DHT22;21562;49.476;6.086;2024-03-23T05:14:07;7.20;99.90
35445;DHT22;21562;49.476;6.086;2024-03-23T05:16:33;7.00;99.90
35445;DHT22;21562;49.476;6.086;2024-03-23T05:18:59;7.10;99.90
35445;DHT22;21562;49.476;6.086;2024-03-23T05:21:24;7.30;99.90
35445;DHT22;21562;49.476;6.086;2024-03-23T05:23:50;7.30;99.90
35445;DHT22;21562;49.476;6.086;2024-03-23T05:26:17;7.30;99.90
35445;DHT22;21562;49.476;6.086;2024-03-23T05:28:43;7.20;99.90
35445;DHT22;21562;49.476;6.086;2024-03-23T05:31:09;7.20;99.90
35445;DHT22;21562;49.476;6.086;2024-03-23T05:33:38;7.20;99.90
35445;DHT22;21562;49.476;6.086;2024-03-23T05:36:04;7.20;99.90
35445;DHT22;21562;49.476;6.086;2024-03-23T05:38:30;7.40;99.90
35445;DHT22;21562;49.476;6.086;2024-03-23T05:40:59;7.30;99.90
35445;DHT22;21562;49.476;6.086;2024-03-23T05:43:26;7.50;99.90
35445;DHT22;21562;49.476;6.086;2024-03-23T05:45:55;7.70;99.90
35445;DHT22;21562;49.476;6.086;2024-03-23T05:48:22;7.80;99.90
35445;DHT22;21562;49.476;6.086;2024-03-23T05:50:51;7.60;99.90
35445;DHT22;21562;49.476;6.086;2024-03-23T05:53:18;7.40;99.90
35445;DHT22;21562;49.476;6.086;2024-03-23T05:55:46;7.50;99.90
35445;DHT22;21562;49.476;6.086;2024-03-23T05:58:14;7.40;99.90
35445;DHT22;21562;49.476;6.086;2024-03-23T06:00:40;7.20;99.90
35445;DHT22;21562;49.476;6.086;2024-03-23T06:03:06;7.10;99.90
35445;DHT22;21562;49.476;6.086;2024-03-23T06:05:32;7.40;99.90
35445;DHT22;21562;49.476;6.086;2024-03-23T06:07:57;7.60;99.90
35445;DHT22;21562;49.476;6.086;2024-03-23T06:10:23;7.60;99.90
35445;DHT22;21562;49.476;6.086;2024-03-23T06:12:49;7.60;99.90
35445;DHT22;21562;49.476;6.086;2024-03-23T06:15:18;7.80;99.90
35445;DHT22;21562;49.476;6.086;2024-03-23T06:17:44;8.00;99.90
35445;DHT22;21562;49.476;6.086;2024-03-23T06:20:09;7.90;99.90
35445;DHT22;21562;49.476;6.086;2024-03-23T06:22:35;8.00;99.90
35445;DHT22;21562;49.476;6.086;2024-03-23T06:25:01;7.90;99.90
35445;DHT22;21562;49.476;6.086;2024-03-23T06:27:27;7.80;99.90
35445;DHT22;21562;49.476;6.086;2024-03-23T06:29:53;7.50;99.90
35445;DHT22;21562;49.476;6.086;2024-03-23T06:32:18;7.60;99.90
35445;DHT22;21562;49.476;6.086;2024-03-23T06:34:44;7.70;99.90
35445;DHT22;21562;49.476;6.086;2024-03-23T06:37:10;7.80;99.90
35445;DHT22;21562;49.476;6.086;2024-03-23T06:39:37;7.70;99.90
35445;DHT22;21562;49.476;6.086;2024-03-23T06:42:03;7.40;99.90
35445;DHT22;21562;49.476;6.086;2024-03-23T06:44:29;7.00;99.90
35445;DHT22;21562;49.476;6.086;2024-03-23T06:46:55;6.60;99.90
35445;DHT22;21562;49.476;6.086;2024-03-23T06:49:22;6.60;99.90
35445;DHT22;21562;49.476;6.086;2024-03-23T06:51:48;6.60;99.90
35445;DHT22;21562;49.476;6.086;2024-03-23T06:54:14;6.80;99.90
35445;DHT22;21562;49.476;6.086;2024-03-23T06:56:40;6.50;99.90
35445;DHT22;21562;49.476;6.086;2024-03-23T06:59:06;6.50;99.90
35445;DHT22;21562;49.476;6.086;2024-03-23T07:01:32;6.40;99.90
35445;DHT22;21562;49.476;6.086;2024-03-23T07:03:58;6.50;99.90
35445;DHT22;21562;49.476;6.086;2024-03-23T07:06:24;6.50;99.90
35445;DHT22;21562;49.476;6.086;2024-03-23T07:08:49;6.70;99.90
35445;DHT22;21562;49.476;6.086;2024-03-23T07:11:19;6.80;99.90
35445;DHT22;21562;49.476;6.086;2024-03-23T07:13:45;6.70;99.90
35445;DHT22;21562;49.476;6.086;2024-03-23T07:16:11;6.60;99.90
35445;DHT22;21562;49.476;6.086;2024-03-23T07:18:37;6.70;99.90
35445;DHT22;21562;49.476;6.086;2024-03-23T07:21:02;6.70;99.90
35445;DHT22;21562;49.476;6.086;2024-03-23T07:23:29;6.70;99.90
35445;DHT22;21562;49.476;6.086;2024-03-23T07:28:26;6.90;99.90
35445;DHT22;21562;49.476;6.086;2024-03-23T07:31:11;6.90;99.90
35445;DHT22;21562;49.476;6.086;2024-03-23T07:33:41;6.90;99.90
35445;DHT22;21562;49.476;6.086;2024-03-23T07:36:07;6.60;99.90
35445;DHT22;21562;49.476;6.086;2024-03-23T07:38:33;6.80;99.90
35445;DHT22;21562;49.476;6.086;2024-03-23T07:41:11;6.90;99.90
35445;DHT22;21562;49.476;6.086;2024-03-23T07:43:38;7.00;99.90
35445;DHT22;21562;49.476;6.086;2024-03-23T07:46:04;8.10;99.90
35445;DHT22;21562;49.476;6.086;2024-03-23T07:48:30;10.40;99.90
35445;DHT22;21562;49.476;6.086;2024-03-23T07:51:05;11.80;99.90
35445;DHT22;21562;49.476;6.086;2024-03-23T07:53:32;9.60;73.80
35445;DHT22;21562;49.476;6.086;2024-03-23T07:56:02;8.30;99.90
35445;DHT22;21562;49.476;6.086;2024-03-23T07:58:28;8.40;99.90
35445;DHT22;21562;49.476;6.086;2024-03-23T08:01:04;7.90;99.90
35445;DHT22;21562;49.476;6.086;2024-03-23T08:03:30;7.70;99.90
35445;DHT22;21562;49.476;6.086;2024-03-23T08:05:56;7.70;99.90
35445;DHT22;21562;49.476;6.086;2024-03-23T08:08:21;7.50;99.90
35445;DHT22;21562;49.476;6.086;2024-03-23T08:10:51;7.60;99.90
35445;DHT22;21562;49.476;6.086;2024-03-23T08:13:17;7.80;99.90
35445;DHT22;21562;49.476;6.086;2024-03-23T08:15:43;7.80;99.90
35445;DHT22;21562;49.476;6.086;2024-03-23T08:18:12;7.90;99.90
35445;DHT22;21562;49.476;6.086;2024-03-23T08:20:39;7.90;99.90
35445;DHT22;21562;49.476;6.086;2024-03-23T08:23:08;8.00;99.90
35445;DHT22;21562;49.476;6.086;2024-03-23T08:25:34;7.70;99.90
35445;DHT22;21562;49.476;6.086;2024-03-23T08:28:01;7.80;99.90
35445;DHT22;21562;49.476;6.086;2024-03-23T08:30:29;7.90;99.90
35445;DHT22;21562;49.476;6.086;2024-03-23T08:32:55;7.70;99.90
35445;DHT22;21562;49.476;6.086;2024-03-23T08:35:20;7.80;99.90
35445;DHT22;21562;49.476;6.086;2024-03-23T08:37:46;7.90;99.90
35445;DHT22;21562;49.476;6.086;2024-03-23T08:40:12;8.00;99.90
35445;DHT22;21562;49.476;6.086;2024-03-23T08:42:38;8.20;99.90
35445;DHT22;21562;49.476;6.086;2024-03-23T08:45:04;8.50;99.90
35445;DHT22;21562;49.476;6.086;2024-03-23T08:47:30;8.40;99.90
35445;DHT22;21562;49.476;6.086;2024-03-23T08:49:55;8.10;99.90
35445;DHT22;21562;49.476;6.086;2024-03-23T08:52:23;8.10;99.90
35445;DHT22;21562;49.476;6.086;2024-03-23T08:54:48;8.20;99.90
35445;DHT22;21562;49.476;6.086;2024-03-23T08:57:14;8.30;99.90
35445;DHT22;21562;49.476;6.086;2024-03-23T08:59:40;8.50;99.90
35445;DHT22;21562;49.476;6.086;2024-03-23T09:02:05;8.30;98.20
35445;DHT22;21562;49.476;6.086;2024-03-23T09:04:31;8.60;99.90
35445;DHT22;21562;49.476;6.086;2024-03-23T09:06:57;8.80;92.20
35445;DHT22;21562;49.476;6.086;2024-03-23T09:09:25;8.90;89.00
35445;DHT22;21562;49.476;6.086;2024-03-23T09:11:51;8.80;66.80
35445;DHT22;21562;49.476;6.086;2024-03-23T09:14:16;8.70;72.90
35445;DHT22;21562;49.476;6.086;2024-03-23T09:16:42;9.00;88.90
35445;DHT22;21562;49.476;6.086;2024-03-23T09:19:08;8.70;63.60
35445;DHT22;21562;49.476;6.086;2024-03-23T09:21:33;8.20;61.80
35445;DHT22;21562;49.476;6.086;2024-03-23T09:23:59;8.10;58.40
35445;DHT22;21562;49.476;6.086;2024-03-23T09:26:26;8.00;70.20
35445;DHT22;21562;49.476;6.086;2024-03-23T09:28:52;7.90;99.90
35445;DHT22;21562;49.476;6.086;2024-03-23T09:31:17;7.80;86.10
35445;DHT22;21562;49.476;6.086;2024-03-23T09:33:43;8.10;98.00
35445;DHT22;21562;49.476;6.086;2024-03-23T09:36:09;10.20;99.90
35445;DHT22;21562;49.476;6.086;2024-03-23T09:38:35;10.60;26.50
35445;DHT22;21562;49.476;6.086;2024-03-23T09:41:07;10.80;99.30
35445;DHT22;21562;49.476;6.086;2024-03-23T09:43:34;10.50;34.80
35445;DHT22;21562;49.476;6.086;2024-03-23T09:46:00;10.10;42.60
35445;DHT22;21562;49.476;6.086;2024-03-23T09:48:27;10.40;9.80
35445;DHT22;21562;49.476;6.086;2024-03-23T09:50:52;10.60;4.90
35445;DHT22;21562;49.476;6.086;2024-03-23T09:53:18;10.40;1.00
35445;DHT22;21562;49.476;6.086;2024-03-23T09:55:44;10.50;1.00
35445;DHT22;21562;49.476;6.086;2024-03-23T09:58:16;10.00;1.00
35445;DHT22;21562;49.476;6.086;2024-03-23T10:00:41;9.80;71.10
35445;DHT22;21562;49.476;6.086;2024-03-23T10:03:08;9.50;24.20
35445;DHT22;21562;49.476;6.086;2024-03-23T10:05:36;9.10;10.10
35445;DHT22;21562;49.476;6.086;2024-03-23T10:10:44;6.30;99.90
35445;DHT22;21562;49.476;6.086;2024-03-23T10:13:10;5.70;99.90
35445;DHT22;21562;49.476;6.086;2024-03-23T10:15:38;5.40;99.90
35445;DHT22;21562;49.476;6.086;2024-03-23T10:18:22;5.70;99.90
35445;DHT22;21562;49.476;6.086;2024-03-23T10:21:10;5.70;99.90
35445;DHT22;21562;49.476;6.086;2024-03-23T10:23:40;5.70;99.90
35445;DHT22;21562;49.476;6.086;2024-03-23T10:28:56;6.10;99.90
35445;DHT22;21562;49.476;6.086;2024-03-23T10:31:37;6.40;99.90
35445;DHT22;21562;49.476;6.086;2024-03-23T10:34:03;6.70;99.90
35445;DHT22;21562;49.476;6.086;2024-03-23T10:36:30;6.70;99.90
35445;DHT22;21562;49.476;6.086;2024-03-23T10:38:56;7.10;99.90
35445;DHT22;21562;49.476;6.086;2024-03-23T10:41:27;7.00;99.90
35445;DHT22;21562;49.476;6.086;2024-03-23T10:43:53;7.20;99.90
35445;DHT22;21562;49.476;6.086;2024-03-23T10:46:21;7.30;99.90
35445;DHT22;21562;49.476;6.086;2024-03-23T10:48:47;7.50;99.90
35445;DHT22;21562;49.476;6.086;2024-03-23T10:51:14;7.60;99.90
35445;DHT22;21562;49.476;6.086;2024-03-23T10:53:40;7.60;99.90
35445;DHT22;21562;49.476;6.086;2024-03-23T10:56:07;8.00;99.90
35445;DHT22;21562;49.476;6.086;2024-03-23T10:58:43;7.70;99.90
35445;DHT22;21562;49.476;6.086;2024-03-23T11:01:13;7.70;99.90
35445;DHT22;21562;49.476;6.086;2024-03-23T11:03:44;8.10;99.90
35445;DHT22;21562;49.476;6.086;2024-03-23T11:06:10;8.60;99.90
35445;DHT22;21562;49.476;6.086;2024-03-23T11:08:37;8.60;99.90
35445;DHT22;21562;49.476;6.086;2024-03-23T11:11:19;8.90;65.90
35445;DHT22;21562;49.476;6.086;2024-03-23T11:13:51;9.00;45.20
35445;DHT22;21562;49.476;6.086;2024-03-23T11:16:24;9.00;28.00
35445;DHT22;21562;49.476;6.086;2024-03-23T11:18:51;9.20;20.70
35445;DHT22;21562;49.476;6.086;2024-03-23T11:21:54;9.00;14.60
35445;DHT22;21562;49.476;6.086;2024-03-23T11:24:21;9.00;16.70
35445;DHT22;21562;49.476;6.086;2024-03-23T11:26:50;8.60;1.00
35445;DHT22;21562;49.476;6.086;2024-03-23T11:29:17;8.30;19.60
35445;DHT22;21562;49.476;6.086;2024-03-23T11:31:51;8.80;11.00
35445;DHT22;21562;49.476;6.086;2024-03-23T11:34:18;8.70;3.60
35445;DHT22;21562;49.476;6.086;2024-03-23T11:36:45;8.40;11.70
35445;DHT22;21562;49.476;6.086;2024-03-23T11:39:18;7.60;77.30
35445;DHT22;21562;49.476;6.086;2024-03-23T11:41:52;7.40;99.90
35445;DHT22;21562;49.476;6.086;2024-03-23T11:44:27;7.20;99.90
35445;DHT22;21562;49.476;6.086;2024-03-23T11:46:53;7.00;99.10
35445;DHT22;21562;49.476;6.086;2024-03-23T11:49:29;6.90;93.00
35445;DHT22;21562;49.476;6.086;2024-03-23T11:51:56;6.60;99.90
35445;DHT22;21562;49.476;6.086;2024-03-23T11:54:26;6.50;87.80
35445;DHT22;21562;49.476;6.086;2024-03-23T11:56:59;6.20;99.90
35445;DHT22;21562;49.476;6.086;2024-03-23T11:59:35;6.50;99.90
35445;DHT22;21562;49.476;6.086;2024-03-23T12:02:12;6.50;99.90
35445;DHT22;21562;49.476;6.086;2024-03-23T12:04:40;6.50;65.90
35445;DHT22;21562;49.476;6.086;2024-03-23T12:09:41;6.90;66.40
35445;DHT22;21562;49.476;6.086;2024-03-23T12:12:18;7.00;55.40
35445;DHT22;21562;49.476;6.086;2024-03-23T12:14:44;7.40;54.20
35445;DHT22;21562;49.476;6.086;2024-03-23T12:17:11;7.60;48.30
35445;DHT22;21562;49.476;6.086;2024-03-23T12:19:44;7.80;24.10
35445;DHT22;21562;49.476;6.086;2024-03-23T12:22:29;7.80;29.70
35445;DHT22;21562;49.476;6.086;2024-03-23T12:25:06;8.20;29.00
35445;DHT22;21562;49.476;6.086;2024-03-23T12:27:32;9.70;57.80
35445;DHT22;21562;49.476;6.086;2024-03-23T12:29:57;10.80;99.90
35445;DHT22;21562;49.476;6.086;2024-03-23T12:32:23;11.70;1.00
35445;DHT22;21562;49.476;6.086;2024-03-23T12:34:49;11.20;4.70
35445;DHT22;21562;49.476;6.086;2024-03-23T12:37:15;11.20;2.30
35445;DHT22;21562;49.476;6.086;2024-03-23T12:39:42;11.40;1.00
35445;DHT22;21562;49.476;6.086;2024-03-23T12:42:08;9.90;1.00
35445;DHT22;21562;49.476;6.086;2024-03-23T12:44:34;9.80;6.60
35445;DHT22;21562;49.476;6.086;2024-03-23T12:46:59;9.70;8.20
35445;DHT22;21562;49.476;6.086;2024-03-23T12:49:25;9.80;1.00
35445;DHT22;21562;49.476;6.086;2024-03-23T12:51:55;9.30;1.00
35445;DHT22;21562;49.476;6.086;2024-03-23T12:54:22;9.10;6.80
35445;DHT22;21562;49.476;6.086;2024-03-23T12:56:48;8.70;28.40
35445;DHT22;21562;49.476;6.086;2024-03-23T12:59:19;8.30;52.10
35445;DHT22;21562;49.476;6.086;2024-03-23T13:01:45;8.20;90.30
35445;DHT22;21562;49.476;6.086;2024-03-23T13:04:11;8.10;99.90
35445;DHT22;21562;49.476;6.086;2024-03-23T13:06:37;8.00;99.90
35445;DHT22;21562;49.476;6.086;2024-03-23T13:09:03;8.00;99.90
35445;DHT22;21562;49.476;6.086;2024-03-23T13:11:30;8.00;59.10
35445;DHT22;21562;49.476;6.086;2024-03-23T13:13:56;8.00;89.00
35445;DHT22;21562;49.476;6.086;2024-03-23T13:16:22;8.00;73.80
35445;DHT22;21562;49.476;6.086;2024-03-23T13:18:48;9.10;99.90
35445;DHT22;21562;49.476;6.086;2024-03-23T13:21:14;9.30;99.90
35445;DHT22;21562;49.476;6.086;2024-03-23T13:23:40;9.60;84.50
35445;DHT22;21562;49.476;6.086;2024-03-23T13:26:07;9.40;3.80
35445;DHT22;21562;49.476;6.086;2024-03-23T13:28:33;10.50;24.30
35445;DHT22;21562;49.476;6.086;2024-03-23T13:31:00;11.10;1.00
35445;DHT22;21562;49.476;6.086;2024-03-23T13:33:32;11.20;1.00
35445;DHT22;21562;49.476;6.086;2024-03-23T13:35:58;11.10;1.00
35445;DHT22;21562;49.476;6.086;2024-03-23T13:38:24;11.10;1.00
35445;DHT22;21562;49.476;6.086;2024-03-23T13:40:55;11.70;1.00
35445;DHT22;21562;49.476;6.086;2024-03-23T13:43:21;11.40;1.00
35445;DHT22;21562;49.476;6.086;2024-03-23T13:45:48;11.70;99.90
35445;DHT22;21562;49.476;6.086;2024-03-23T13:48:16;10.60;99.90
35445;DHT22;21562;49.476;6.086;2024-03-23T13:50:42;9.90;1.00
35445;DHT22;21562;49.476;6.086;2024-03-23T13:53:07;9.50;1.00
35445;DHT22;21562;49.476;6.086;2024-03-23T13:55:34;9.50;1.00
35445;DHT22;21562;49.476;6.086;2024-03-23T13:58:00;9.40;1.00
35445;DHT22;21562;49.476;6.086;2024-03-23T14:00:26;8.70;1.00
35445;DHT22;21562;49.476;6.086;2024-03-23T14:02:51;8.90;1.00
35445;DHT22;21562;49.476;6.086;2024-03-23T14:05:17;9.60;22.50
35445;DHT22;21562;49.476;6.086;2024-03-23T14:07:42;8.90;1.00
35445;DHT22;21562;49.476;6.086;2024-03-23T14:10:08;7.70;32.80
35445;DHT22;21562;49.476;6.086;2024-03-23T14:12:37;7.60;99.90
35445;DHT22;21562;49.476;6.086;2024-03-23T14:15:07;6.90;99.90
35445;DHT22;21562;49.476;6.086;2024-03-23T14:17:33;5.90;99.90
35445;DHT22;21562;49.476;6.086;2024-03-23T14:19:59;6.20;99.90
35445;DHT22;21562;49.476;6.086;2024-03-23T14:22:27;7.00;99.90
35445;DHT22;21562;49.476;6.086;2024-03-23T14:24:53;7.20;99.90
35445;DHT22;21562;49.476;6.086;2024-03-23T14:27:19;7.10;99.90
35445;DHT22;21562;49.476;6.086;2024-03-23T14:29:48;7.00;99.90
35445;DHT22;21562;49.476;6.086;2024-03-23T14:32:14;7.10;99.90
35445;DHT22;21562;49.476;6.086;2024-03-23T14:34:41;7.20;99.90
35445;DHT22;21562;49.476;6.086;2024-03-23T14:37:07;7.10;99.90
35445;DHT22;21562;49.476;6.086;2024-03-23T14:39:33;7.10;99.90
35445;DHT22;21562;49.476;6.086;2024-03-23T14:42:40;7.10;99.90
35445;DHT22;21562;49.476;6.086;2024-03-23T14:45:09;7.20;99.90
35445;DHT22;21562;49.476;6.086;2024-03-23T14:47:35;7.20;99.90
35445;DHT22;21562;49.476;6.086;2024-03-23T14:50:09;7.30;99.90
35445;DHT22;21562;49.476;6.086;2024-03-23T14:52:39;7.50;99.90
35445;DHT22;21562;49.476;6.086;2024-03-23T14:55:06;7.20;99.90
35445;DHT22;21562;49.476;6.086;2024-03-23T14:57:35;7.30;99.90
35445;DHT22;21562;49.476;6.086;2024-03-23T15:00:02;7.10;97.70
35445;DHT22;21562;49.476;6.086;2024-03-23T15:02:35;7.00;99.90
35445;DHT22;21562;49.476;6.086;2024-03-23T15:05:01;7.00;95.90
35445;DHT22;21562;49.476;6.086;2024-03-23T15:07:32;6.90;91.40
35445;DHT22;21562;49.476;6.086;2024-03-23T15:10:02;6.80;99.90
35445;DHT22;21562;49.476;6.086;2024-03-23T15:12:39;6.90;99.90
35445;DHT22;21562;49.476;6.086;2024-03-23T15:15:06;6.60;99.90
35445;DHT22;21562;49.476;6.086;2024-03-23T15:17:33;6.10;99.90
35445;DHT22;21562;49.476;6.086;2024-03-23T15:20:34;6.20;99.90
35445;DHT22;21562;49.476;6.086;2024-03-23T15:23:22;6.30;99.90
35445;DHT22;21562;49.476;6.086;2024-03-23T15:26:03;6.20;99.90
35445;DHT22;21562;49.476;6.086;2024-03-23T15:28:29;6.30;99.90
35445;DHT22;21562;49.476;6.086;2024-03-23T15:31:16;6.50;99.90
35445;DHT22;21562;49.476;6.086;2024-03-23T15:33:42;6.30;99.90
35445;DHT22;21562;49.476;6.086;2024-03-23T15:36:08;6.10;99.90
35445;DHT22;21562;49.476;6.086;2024-03-23T15:38:35;6.20;99.90
35445;DHT22;21562;49.476;6.086;2024-03-23T15:41:13;6.20;99.90
35445;DHT22;21562;49.476;6.086;2024-03-23T15:43:42;5.90;99.90
35445;DHT22;21562;49.476;6.086;2024-03-23T15:46:18;5.90;99.90
35445;DHT22;21562;49.476;6.086;2024-03-23T15:48:45;5.90;99.90
35445;DHT22;21562;49.476;6.086;2024-03-23T15:51:14;5.80;99.90
35445;DHT22;21562;49.476;6.086;2024-03-23T15:53:40;5.70;99.90
35445;DHT22;21562;49.476;6.086;2024-03-23T15:59:09;6.00;99.90
35445;DHT22;21562;49.476;6.086;2024-03-23T16:01:36;6.20;99.90
35445;DHT22;21562;49.476;6.086;2024-03-23T16:04:07;6.20;99.90
35445;DHT22;21562;49.476;6.086;2024-03-23T16:06:33;6.20;99.90
35445;DHT22;21562;49.476;6.086;2024-03-23T16:08:59;6.30;99.90
35445;DHT22;21562;49.476;6.086;2024-03-23T16:11:25;6.20;99.90
35445;DHT22;21562;49.476;6.086;2024-03-23T16:13:51;6.10;99.90
35445;DHT22;21562;49.476;6.086;2024-03-23T16:16:16;8.60;99.90
35445;DHT22;21562;49.476;6.086;2024-03-23T16:18:42;9.00;99.90
35445;DHT22;21562;49.476;6.086;2024-03-23T16:21:09;9.30;99.90
35445;DHT22;21562;49.476;6.086;2024-03-23T16:23:43;10.10;11.70
35445;DHT22;21562;49.476;6.086;2024-03-23T16:26:12;8.10;45.70
35445;DHT22;21562;49.476;6.086;2024-03-23T16:28:38;7.50;99.90
35445;DHT22;21562;49.476;6.086;2024-03-23T16:31:08;7.60;77.70
35445;DHT22;21562;49.476;6.086;2024-03-23T16:33:34;7.60;99.90
35445;DHT22;21562;49.476;6.086;2024-03-23T16:36:01;7.60;99.90
35445;DHT22;21562;49.476;6.086;2024-03-23T16:38:28;7.70;98.70
35445;DHT22;21562;49.476;6.086;2024-03-23T16:41:15;8.00;93.70
35445;DHT22;21562;49.476;6.086;2024-03-23T16:46:42;8.10;99.90
35445;DHT22;21562;49.476;6.086;2024-03-23T16:50:14;7.40;99.90
35445;DHT22;21562;49.476;6.086;2024-03-23T16:59:37;6.70;99.90
35445;DHT22;21562;49.476;6.086;2024-03-23T17:05:38;7.50;99.90
35445;DHT22;21562;49.476;6.086;2024-03-23T17:08:23;7.30;99.90